European Causeway — C6RG7 — position and weather

sailwx.info

Track history (hours):
 
Tides and Currents Weather Stations Pressure Air Temp Water Temp Dewpoint Dewpoint Depression Visibility Wind Speed Wind Dir Waves Ship Positions

European Causeway

Operator: P & O Irish Sea

Last reported at 2020-Jul-05 15:26 UTC. Time now 2020-Jul-05 22:12 UTC.
Position N 54°51' W 005°48'.

Length 145 m; draft 5.5 m.

Type: Passenger vessel. MMSI: 311027000.

Date/timePositionNaut miles runAvg speedWind from/ knotsBaromVisibWave heightAir tempDewpointWater temp
2020-Jul-05 15:26N 54°51' W 005°48'0 0.0
2020-Jul-05 10:16N 54°51' W 005°48'0 0.0
2020-Jul-04 19:35N 54°51' W 005°48'0 1.2
2020-Jul-04 19:30N 54°51' W 005°48'0 0.1
2020-Jul-04 18:30N 54°51' W 005°48'0 0.0
2020-Jul-04 12:10N 54°51' W 005°48'0 0.0
2020-Jul-03 21:28N 54°51' W 005°48'0 0.0
2020-Jul-03 20:52N 54°51' W 005°48'21 4.7
2020-Jul-03 16:20N 55°00' W 005°14'2116.7
2020-Jul-03 15:03N 54°51' W 005°48'16 1.5
2020-Jul-03 03:55N 54°58' W 005°22'1617.4
2020-Jul-03 02:59N 54°51' W 005°48'0 0.3
2020-Jul-03 02:30N 54°51' W 005°48'20 3.3
2020-Jul-02 20:29N 54°59' W 005°17'2016.9
2020-Jul-02 19:19N 54°51' W 005°48'21 5.8
2020-Jul-02 15:44N 55°01' W 005°16'1 0.2
2020-Jul-02 10:15N 54°60' W 005°15'1317.0
2020-Jul-02 09:30N 54°55' W 005°35'815.1
2020-Jul-02 08:58N 54°51' W 005°48'0 0.0
2020-Jul-02 06:29N 54°51' W 005°48'15 6.0
2020-Jul-02 03:59N 54°58' W 005°25'7 1.6
2020-Jul-01 23:26N 54°54' W 005°36'1 0.1
2020-Jul-01 15:45N 54°55' W 005°34'8 0.7
2020-Jul-01 03:51N 54°58' W 005°21'1711.2
2020-Jul-01 02:20N 54°51' W 005°48'12 5.0
2020-Jul-01 00:00N 54°57' W 005°30'12 2.1
2020-Jun-30 18:30N 54°51' W 005°48'0 0.0
2020-Jun-30 18:00N 54°51' W 005°48'0 0.0
2020-Jun-30 17:11N 54°51' W 005°48'1513.7
2020-Jun-30 16:06N 54°58' W 005°25'15 1.6
2020-Jun-30 07:04N 54°51' W 005°48'0 0.0
2020-Jun-30 06:13N 54°51' W 005°48'22 2.9
2020-Jun-29 22:28N 55°01' W 005°13'2216.6
2020-Jun-29 21:07N 54°51' W 005°48'7 1.5
2020-Jun-29 16:26N 54°55' W 005°38'1316.9
2020-Jun-29 15:38N 55°00' W 005°16'12 0.7
2020-Jun-28 21:35N 54°55' W 005°36'1 0.1
2020-Jun-28 07:28N 54°55' W 005°35'9 3.4
2020-Jun-28 04:57N 54°51' W 005°48'0 0.0
2020-Jun-28 02:12N 54°51' W 005°48'0 0.0
2020-Jun-28 01:15N 54°51' W 005°48'0 0.0
2020-Jun-27 22:48N 54°51' W 005°48'0 0.0
2020-Jun-27 22:12N 54°51' W 005°48'11 1.8
2020-Jun-27 16:12N 54°56' W 005°32'11 1.5
2020-Jun-27 09:13N 54°51' W 005°48'27 2.5
2020-Jun-26 22:41N 55°00' W 005°04'2715.2
2020-Jun-26 20:56N 54°51' W 005°48'0 0.0
2020-Jun-26 20:27N 54°51' W 005°48'18 3.8
2020-Jun-26 15:47N 54°59' W 005°21'18 1.6
2020-Jun-26 05:00N 54°51' W 005°48'0 0.0
2020-Jun-25 19:50N 54°51' W 005°48'0 0.0
2020-Jun-25 18:53N 54°51' W 005°48'0 0.0
2020-Jun-25 17:53N 54°51' W 005°48'10 6.5
2020-Jun-25 16:24N 54°56' W 005°33'  
Track history (hours):
 
Tides and Currents Weather Stations Pressure Air Temp Water Temp Dewpoint Dewpoint Depression Visibility Wind Speed Wind Dir Waves Ship Positions

European Causeway

Operator: P & O Irish Sea

Last reported at 2020-Jul-05 15:26 UTC. Time now 2020-Jul-05 22:12 UTC.
Position N 54°51' W 005°48'.

Length 145 m; draft 5.5 m.

Type: Passenger vessel. MMSI: 311027000.

Date/timePositionNaut miles runAvg speedWind from/ knotsBaromVisibWave heightAir tempDewpointWater temp
2020-Jul-05 15:26N 54°51' W 005°48'0 0.0
2020-Jul-05 10:16N 54°51' W 005°48'0 0.0
2020-Jul-04 19:35N 54°51' W 005°48'0 1.2
2020-Jul-04 19:30N 54°51' W 005°48'0 0.1
2020-Jul-04 18:30N 54°51' W 005°48'0 0.0
2020-Jul-04 12:10N 54°51' W 005°48'0 0.0
2020-Jul-03 21:28N 54°51' W 005°48'0 0.0
2020-Jul-03 20:52N 54°51' W 005°48'21 4.7
2020-Jul-03 16:20N 55°00' W 005°14'2116.7
2020-Jul-03 15:03N 54°51' W 005°48'16 1.5
2020-Jul-03 03:55N 54°58' W 005°22'1617.4
2020-Jul-03 02:59N 54°51' W 005°48'0 0.3
2020-Jul-03 02:30N 54°51' W 005°48'20 3.3
2020-Jul-02 20:29N 54°59' W 005°17'2016.9
2020-Jul-02 19:19N 54°51' W 005°48'21 5.8
2020-Jul-02 15:44N 55°01' W 005°16'1 0.2
2020-Jul-02 10:15N 54°60' W 005°15'1317.0
2020-Jul-02 09:30N 54°55' W 005°35'815.1
2020-Jul-02 08:58N 54°51' W 005°48'0 0.0
2020-Jul-02 06:29N 54°51' W 005°48'15 6.0
2020-Jul-02 03:59N 54°58' W 005°25'7 1.6
2020-Jul-01 23:26N 54°54' W 005°36'1 0.1
2020-Jul-01 15:45N 54°55' W 005°34'8 0.7
2020-Jul-01 03:51N 54°58' W 005°21'1711.2
2020-Jul-01 02:20N 54°51' W 005°48'12 5.0
2020-Jul-01 00:00N 54°57' W 005°30'12 2.1
2020-Jun-30 18:30N 54°51' W 005°48'0 0.0
2020-Jun-30 18:00N 54°51' W 005°48'0 0.0
2020-Jun-30 17:11N 54°51' W 005°48'1513.7
2020-Jun-30 16:06N 54°58' W 005°25'15 1.6
2020-Jun-30 07:04N 54°51' W 005°48'0 0.0
2020-Jun-30 06:13N 54°51' W 005°48'22 2.9
2020-Jun-29 22:28N 55°01' W 005°13'2216.6
2020-Jun-29 21:07N 54°51' W 005°48'7 1.5
2020-Jun-29 16:26N 54°55' W 005°38'1316.9
2020-Jun-29 15:38N 55°00' W 005°16'12 0.7
2020-Jun-28 21:35N 54°55' W 005°36'1 0.1
2020-Jun-28 07:28N 54°55' W 005°35'9 3.4
2020-Jun-28 04:57N 54°51' W 005°48'0 0.0
2020-Jun-28 02:12N 54°51' W 005°48'0 0.0
2020-Jun-28 01:15N 54°51' W 005°48'0 0.0
2020-Jun-27 22:48N 54°51' W 005°48'0 0.0
2020-Jun-27 22:12N 54°51' W 005°48'11 1.8
2020-Jun-27 16:12N 54°56' W 005°32'11 1.5
2020-Jun-27 09:13N 54°51' W 005°48'27 2.5
2020-Jun-26 22:41N 55°00' W 005°04'2715.2
2020-Jun-26 20:56N 54°51' W 005°48'0 0.0
2020-Jun-26 20:27N 54°51' W 005°48'18 3.8
2020-Jun-26 15:47N 54°59' W 005°21'18 1.6
2020-Jun-26 05:00N 54°51' W 005°48'0 0.0
2020-Jun-25 19:50N 54°51' W 005°48'0 0.0
2020-Jun-25 18:53N 54°51' W 005°48'0 0.0
2020-Jun-25 17:53N 54°51' W 005°48'10 6.5
2020-Jun-25 16:24N 54°56' W 005°33'  

Dump ship's entire track history